sensor_id;sensor_type;location;lat;lon;timestamp;P1;durP1;ratioP1;P2;durP2;ratioP2
21611;SDS011;47005;52.292;13.452;2022-07-04T00:00:03;4.18;;;2.90;;
21611;SDS011;47005;52.292;13.452;2022-07-04T00:02:31;3.10;;;2.60;;
21611;SDS011;47005;52.292;13.452;2022-07-04T00:04:57;4.03;;;2.80;;
21611;SDS011;47005;52.292;13.452;2022-07-04T00:07:22;3.45;;;2.75;;
21611;SDS011;47005;52.292;13.452;2022-07-04T00:09:48;3.20;;;2.80;;
21611;SDS011;47005;52.292;13.452;2022-07-04T00:12:14;3.03;;;2.33;;
21611;SDS011;47005;52.292;13.452;2022-07-04T00:14:39;2.90;;;2.13;;
21611;SDS011;47005;52.292;13.452;2022-07-04T00:17:05;4.13;;;2.70;;
21611;SDS011;47005;52.292;13.452;2022-07-04T00:19:31;3.28;;;2.33;;
21611;SDS011;47005;52.292;13.452;2022-07-04T00:21:57;3.80;;;2.70;;
21611;SDS011;47005;52.292;13.452;2022-07-04T00:24:22;3.67;;;2.55;;
21611;SDS011;47005;52.292;13.452;2022-07-04T00:26:48;3.75;;;2.53;;
21611;SDS011;47005;52.292;13.452;2022-07-04T00:29:14;3.00;;;2.33;;
21611;SDS011;47005;52.292;13.452;2022-07-04T00:31:40;3.17;;;2.42;;
21611;SDS011;47005;52.292;13.452;2022-07-04T00:34:05;3.50;;;2.42;;
21611;SDS011;47005;52.292;13.452;2022-07-04T00:36:31;3.28;;;2.50;;
21611;SDS011;47005;52.292;13.452;2022-07-04T00:38:57;4.38;;;2.55;;
21611;SDS011;47005;52.292;13.452;2022-07-04T00:41:23;3.08;;;2.30;;
21611;SDS011;47005;52.292;13.452;2022-07-04T00:44:01;3.22;;;2.42;;
21611;SDS011;47005;52.292;13.452;2022-07-04T00:46:28;3.50;;;2.60;;
21611;SDS011;47005;52.292;13.452;2022-07-04T00:48:54;5.75;;;2.55;;
21611;SDS011;47005;52.292;13.452;2022-07-04T00:51:19;3.40;;;1.90;;
21611;SDS011;47005;52.292;13.452;2022-07-04T00:53:45;3.67;;;2.72;;
21611;SDS011;47005;52.292;13.452;2022-07-04T00:56:11;3.55;;;2.30;;
21611;SDS011;47005;52.292;13.452;2022-07-04T00:58:37;3.20;;;2.40;;
21611;SDS011;47005;52.292;13.452;2022-07-04T01:01:02;4.82;;;2.75;;
21611;SDS011;47005;52.292;13.452;2022-07-04T01:03:28;3.55;;;2.35;;
21611;SDS011;47005;52.292;13.452;2022-07-04T01:05:55;4.07;;;2.58;;
21611;SDS011;47005;52.292;13.452;2022-07-04T01:08:21;4.32;;;2.70;;
21611;SDS011;47005;52.292;13.452;2022-07-04T01:10:47;3.20;;;2.25;;
21611;SDS011;47005;52.292;13.452;2022-07-04T01:13:22;5.93;;;2.30;;
21611;SDS011;47005;52.292;13.452;2022-07-04T01:15:49;5.80;;;2.63;;
21611;SDS011;47005;52.292;13.452;2022-07-04T01:18:15;3.10;;;2.28;;
21611;SDS011;47005;52.292;13.452;2022-07-04T01:20:42;5.60;;;2.58;;
21611;SDS011;47005;52.292;13.452;2022-07-04T01:23:08;4.50;;;2.70;;
21611;SDS011;47005;52.292;13.452;2022-07-04T01:25:34;5.65;;;2.42;;
21611;SDS011;47005;52.292;13.452;2022-07-04T01:28:00;3.10;;;2.47;;
21611;SDS011;47005;52.292;13.452;2022-07-04T01:30:27;3.47;;;2.30;;
21611;SDS011;47005;52.292;13.452;2022-07-04T01:32:53;3.30;;;2.20;;
21611;SDS011;47005;52.292;13.452;2022-07-04T01:35:19;3.67;;;2.08;;
21611;SDS011;47005;52.292;13.452;2022-07-04T01:37:45;2.55;;;2.13;;
21611;SDS011;47005;52.292;13.452;2022-07-04T01:40:11;3.08;;;2.25;;
21611;SDS011;47005;52.292;13.452;2022-07-04T01:42:38;3.63;;;2.45;;
21611;SDS011;47005;52.292;13.452;2022-07-04T01:45:04;4.05;;;2.65;;
21611;SDS011;47005;52.292;13.452;2022-07-04T01:47:31;4.90;;;2.67;;
21611;SDS011;47005;52.292;13.452;2022-07-04T01:49:57;3.88;;;2.55;;
21611;SDS011;47005;52.292;13.452;2022-07-04T01:52:23;3.78;;;2.55;;
21611;SDS011;47005;52.292;13.452;2022-07-04T01:54:48;4.30;;;2.63;;
21611;SDS011;47005;52.292;13.452;2022-07-04T01:57:14;3.40;;;2.13;;
21611;SDS011;47005;52.292;13.452;2022-07-04T01:59:40;4.72;;;2.30;;
21611;SDS011;47005;52.292;13.452;2022-07-04T02:02:24;5.25;;;2.50;;
21611;SDS011;47005;52.292;13.452;2022-07-04T02:04:50;3.55;;;2.58;;
21611;SDS011;47005;52.292;13.452;2022-07-04T02:07:16;3.55;;;2.30;;
21611;SDS011;47005;52.292;13.452;2022-07-04T02:09:42;3.50;;;2.65;;
21611;SDS011;47005;52.292;13.452;2022-07-04T02:12:07;3.63;;;2.30;;
21611;SDS011;47005;52.292;13.452;2022-07-04T02:14:51;4.85;;;2.90;;
21611;SDS011;47005;52.292;13.452;2022-07-04T02:17:17;4.93;;;3.30;;
21611;SDS011;47005;52.292;13.452;2022-07-04T02:19:43;3.78;;;2.53;;
21611;SDS011;47005;52.292;13.452;2022-07-04T02:22:08;4.18;;;2.88;;
21611;SDS011;47005;52.292;13.452;2022-07-04T02:24:34;3.55;;;2.67;;
21611;SDS011;47005;52.292;13.452;2022-07-04T02:27:00;3.78;;;2.80;;
21611;SDS011;47005;52.292;13.452;2022-07-04T02:29:25;4.75;;;3.17;;
21611;SDS011;47005;52.292;13.452;2022-07-04T02:31:51;4.18;;;3.17;;
21611;SDS011;47005;52.292;13.452;2022-07-04T02:34:17;11.18;;;3.35;;
21611;SDS011;47005;52.292;13.452;2022-07-04T02:36:43;5.32;;;3.55;;
21611;SDS011;47005;52.292;13.452;2022-07-04T02:39:08;5.55;;;3.83;;
21611;SDS011;47005;52.292;13.452;2022-07-04T02:41:34;5.18;;;3.72;;
21611;SDS011;47005;52.292;13.452;2022-07-04T02:44:00;4.35;;;3.88;;
21611;SDS011;47005;52.292;13.452;2022-07-04T02:46:25;5.30;;;3.83;;
21611;SDS011;47005;52.292;13.452;2022-07-04T02:48:51;5.30;;;3.33;;
21611;SDS011;47005;52.292;13.452;2022-07-04T02:51:16;5.85;;;4.00;;
21611;SDS011;47005;52.292;13.452;2022-07-04T02:53:42;4.75;;;3.78;;
21611;SDS011;47005;52.292;13.452;2022-07-04T02:56:08;5.45;;;4.60;;
21611;SDS011;47005;52.292;13.452;2022-07-04T02:58:33;8.20;;;3.97;;
21611;SDS011;47005;52.292;13.452;2022-07-04T03:00:59;5.15;;;3.78;;
21611;SDS011;47005;52.292;13.452;2022-07-04T03:03:25;4.45;;;3.97;;
21611;SDS011;47005;52.292;13.452;2022-07-04T03:05:51;5.10;;;4.15;;
21611;SDS011;47005;52.292;13.452;2022-07-04T03:08:17;6.63;;;4.30;;
21611;SDS011;47005;52.292;13.452;2022-07-04T03:10:43;5.57;;;4.35;;
21611;SDS011;47005;52.292;13.452;2022-07-04T03:13:09;4.68;;;4.13;;
21611;SDS011;47005;52.292;13.452;2022-07-04T03:15:35;9.88;;;4.75;;
21611;SDS011;47005;52.292;13.452;2022-07-04T03:18:00;7.07;;;4.63;;
21611;SDS011;47005;52.292;13.452;2022-07-04T03:20:26;5.60;;;4.75;;
21611;SDS011;47005;52.292;13.452;2022-07-04T03:22:52;6.60;;;4.85;;
21611;SDS011;47005;52.292;13.452;2022-07-04T03:25:19;6.13;;;5.05;;
21611;SDS011;47005;52.292;13.452;2022-07-04T03:27:45;4.35;;;3.88;;
21611;SDS011;47005;52.292;13.452;2022-07-04T03:30:11;4.80;;;4.13;;
21611;SDS011;47005;52.292;13.452;2022-07-04T03:32:37;6.50;;;4.90;;
21611;SDS011;47005;52.292;13.452;2022-07-04T03:35:03;6.57;;;4.63;;
21611;SDS011;47005;52.292;13.452;2022-07-04T03:37:30;7.15;;;4.43;;
21611;SDS011;47005;52.292;13.452;2022-07-04T03:39:55;5.95;;;4.68;;
21611;SDS011;47005;52.292;13.452;2022-07-04T03:42:21;7.38;;;5.22;;
21611;SDS011;47005;52.292;13.452;2022-07-04T03:44:47;5.32;;;4.50;;
21611;SDS011;47005;52.292;13.452;2022-07-04T03:47:12;7.05;;;5.30;;
21611;SDS011;47005;52.292;13.452;2022-07-04T03:49:38;6.97;;;4.43;;
21611;SDS011;47005;52.292;13.452;2022-07-04T03:52:04;7.50;;;4.88;;
21611;SDS011;47005;52.292;13.452;2022-07-04T03:54:30;5.32;;;4.45;;
21611;SDS011;47005;52.292;13.452;2022-07-04T03:56:55;7.40;;;5.45;;
21611;SDS011;47005;52.292;13.452;2022-07-04T03:59:21;6.03;;;4.97;;
21611;SDS011;47005;52.292;13.452;2022-07-04T04:01:46;6.05;;;5.45;;
21611;SDS011;47005;52.292;13.452;2022-07-04T04:04:12;6.28;;;5.68;;
21611;SDS011;47005;52.292;13.452;2022-07-04T04:06:56;6.28;;;5.65;;
21611;SDS011;47005;52.292;13.452;2022-07-04T04:09:22;6.20;;;5.47;;
21611;SDS011;47005;52.292;13.452;2022-07-04T04:11:49;7.88;;;5.55;;
21611;SDS011;47005;52.292;13.452;2022-07-04T04:14:18;6.47;;;5.50;;
21611;SDS011;47005;52.292;13.452;2022-07-04T04:16:44;7.35;;;5.47;;
21611;SDS011;47005;52.292;13.452;2022-07-04T04:19:10;7.13;;;6.13;;
21611;SDS011;47005;52.292;13.452;2022-07-04T04:21:35;6.95;;;5.95;;
21611;SDS011;47005;52.292;13.452;2022-07-04T04:24:01;7.00;;;6.28;;
21611;SDS011;47005;52.292;13.452;2022-07-04T04:26:27;9.50;;;4.88;;
21611;SDS011;47005;52.292;13.452;2022-07-04T04:28:54;7.15;;;6.43;;
21611;SDS011;47005;52.292;13.452;2022-07-04T04:31:19;9.68;;;5.70;;
21611;SDS011;47005;52.292;13.452;2022-07-04T04:33:45;6.20;;;5.25;;
21611;SDS011;47005;52.292;13.452;2022-07-04T04:36:10;6.65;;;5.95;;
21611;SDS011;47005;52.292;13.452;2022-07-04T04:38:36;7.82;;;5.45;;
21611;SDS011;47005;52.292;13.452;2022-07-04T04:41:02;6.88;;;5.20;;
21611;SDS011;47005;52.292;13.452;2022-07-04T04:43:28;7.80;;;5.53;;
21611;SDS011;47005;52.292;13.452;2022-07-04T04:45:53;8.15;;;5.65;;
21611;SDS011;47005;52.292;13.452;2022-07-04T04:48:19;6.32;;;5.53;;
21611;SDS011;47005;52.292;13.452;2022-07-04T04:50:45;8.10;;;6.28;;
21611;SDS011;47005;52.292;13.452;2022-07-04T04:53:11;6.43;;;5.57;;
21611;SDS011;47005;52.292;13.452;2022-07-04T04:55:36;6.97;;;5.70;;
21611;SDS011;47005;52.292;13.452;2022-07-04T04:58:02;6.95;;;5.32;;
21611;SDS011;47005;52.292;13.452;2022-07-04T05:00:28;8.68;;;6.03;;
21611;SDS011;47005;52.292;13.452;2022-07-04T05:02:53;11.25;;;5.03;;
21611;SDS011;47005;52.292;13.452;2022-07-04T05:05:19;8.32;;;5.53;;
21611;SDS011;47005;52.292;13.452;2022-07-04T05:07:44;7.22;;;6.40;;
21611;SDS011;47005;52.292;13.452;2022-07-04T05:10:10;6.75;;;5.20;;
21611;SDS011;47005;52.292;13.452;2022-07-04T05:12:36;10.55;;;5.88;;
21611;SDS011;47005;52.292;13.452;2022-07-04T05:15:02;8.30;;;4.95;;
21611;SDS011;47005;52.292;13.452;2022-07-04T05:17:27;11.73;;;5.20;;
21611;SDS011;47005;52.292;13.452;2022-07-04T05:19:53;5.78;;;5.18;;
21611;SDS011;47005;52.292;13.452;2022-07-04T05:22:19;6.97;;;5.57;;
21611;SDS011;47005;52.292;13.452;2022-07-04T05:24:44;5.82;;;5.22;;
21611;SDS011;47005;52.292;13.452;2022-07-04T05:27:10;6.80;;;4.68;;
21611;SDS011;47005;52.292;13.452;2022-07-04T05:29:35;6.60;;;4.53;;
21611;SDS011;47005;52.292;13.452;2022-07-04T05:32:02;7.10;;;4.68;;
21611;SDS011;47005;52.292;13.452;2022-07-04T05:34:29;8.10;;;4.18;;
21611;SDS011;47005;52.292;13.452;2022-07-04T05:36:54;7.18;;;4.38;;
21611;SDS011;47005;52.292;13.452;2022-07-04T05:39:20;6.20;;;4.00;;
21611;SDS011;47005;52.292;13.452;2022-07-04T05:41:46;5.57;;;4.00;;
21611;SDS011;47005;52.292;13.452;2022-07-04T05:44:11;5.53;;;3.88;;
21611;SDS011;47005;52.292;13.452;2022-07-04T05:46:37;6.65;;;3.83;;
21611;SDS011;47005;52.292;13.452;2022-07-04T05:49:02;4.25;;;3.70;;
21611;SDS011;47005;52.292;13.452;2022-07-04T05:51:28;5.72;;;3.85;;
21611;SDS011;47005;52.292;13.452;2022-07-04T05:53:54;4.47;;;3.72;;
21611;SDS011;47005;52.292;13.452;2022-07-04T05:56:19;5.32;;;3.72;;
21611;SDS011;47005;52.292;13.452;2022-07-04T05:58:45;4.10;;;3.25;;
21611;SDS011;47005;52.292;13.452;2022-07-04T06:01:11;7.13;;;3.35;;
21611;SDS011;47005;52.292;13.452;2022-07-04T06:03:36;4.63;;;2.90;;
21611;SDS011;47005;52.292;13.452;2022-07-04T06:06:03;6.32;;;2.90;;
21611;SDS011;47005;52.292;13.452;2022-07-04T06:08:29;6.22;;;3.10;;
21611;SDS011;47005;52.292;13.452;2022-07-04T06:10:54;4.88;;;3.10;;
21611;SDS011;47005;52.292;13.452;2022-07-04T06:13:20;3.25;;;2.63;;
21611;SDS011;47005;52.292;13.452;2022-07-04T06:15:46;6.03;;;3.28;;
21611;SDS011;47005;52.292;13.452;2022-07-04T06:18:12;6.18;;;3.42;;
21611;SDS011;47005;52.292;13.452;2022-07-04T06:20:37;3.78;;;3.20;;
21611;SDS011;47005;52.292;13.452;2022-07-04T06:23:05;5.63;;;3.00;;
21611;SDS011;47005;52.292;13.452;2022-07-04T06:25:31;3.75;;;2.70;;
21611;SDS011;47005;52.292;13.452;2022-07-04T06:27:57;7.63;;;2.53;;
21611;SDS011;47005;52.292;13.452;2022-07-04T06:30:23;5.15;;;2.40;;
21611;SDS011;47005;52.292;13.452;2022-07-04T06:32:50;4.82;;;2.67;;
21611;SDS011;47005;52.292;13.452;2022-07-04T06:35:19;3.30;;;2.47;;
21611;SDS011;47005;52.292;13.452;2022-07-04T06:38:05;5.32;;;2.40;;
21611;SDS011;47005;52.292;13.452;2022-07-04T06:40:30;4.05;;;2.47;;
21611;SDS011;47005;52.292;13.452;2022-07-04T06:42:56;4.20;;;2.33;;
21611;SDS011;47005;52.292;13.452;2022-07-04T06:45:22;3.53;;;2.38;;
21611;SDS011;47005;52.292;13.452;2022-07-04T06:47:47;3.83;;;2.15;;
21611;SDS011;47005;52.292;13.452;2022-07-04T06:50:13;2.28;;;1.83;;
21611;SDS011;47005;52.292;13.452;2022-07-04T06:52:39;6.13;;;2.15;;
21611;SDS011;47005;52.292;13.452;2022-07-04T06:55:05;3.67;;;1.83;;
21611;SDS011;47005;52.292;13.452;2022-07-04T06:57:31;2.75;;;1.88;;
21611;SDS011;47005;52.292;13.452;2022-07-04T06:59:57;3.55;;;2.20;;
21611;SDS011;47005;52.292;13.452;2022-07-04T07:02:22;3.30;;;1.95;;
21611;SDS011;47005;52.292;13.452;2022-07-04T07:04:48;4.25;;;1.92;;
21611;SDS011;47005;52.292;13.452;2022-07-04T07:07:14;5.90;;;2.30;;
21611;SDS011;47005;52.292;13.452;2022-07-04T07:09:39;3.83;;;2.00;;
21611;SDS011;47005;52.292;13.452;2022-07-04T07:12:05;3.47;;;1.75;;
21611;SDS011;47005;52.292;13.452;2022-07-04T07:14:31;2.90;;;1.70;;
21611;SDS011;47005;52.292;13.452;2022-07-04T07:16:56;2.08;;;1.55;;
21611;SDS011;47005;52.292;13.452;2022-07-04T07:19:22;2.15;;;1.38;;
21611;SDS011;47005;52.292;13.452;2022-07-04T07:21:47;2.30;;;1.52;;
21611;SDS011;47005;52.292;13.452;2022-07-04T07:24:13;1.88;;;1.15;;
21611;SDS011;47005;52.292;13.452;2022-07-04T07:26:39;2.35;;;1.40;;
21611;SDS011;47005;52.292;13.452;2022-07-04T07:29:04;2.90;;;1.13;;
21611;SDS011;47005;52.292;13.452;2022-07-04T07:31:30;3.58;;;1.50;;
21611;SDS011;47005;52.292;13.452;2022-07-04T07:33:56;2.35;;;1.17;;
21611;SDS011;47005;52.292;13.452;2022-07-04T07:36:22;4.57;;;1.42;;
21611;SDS011;47005;52.292;13.452;2022-07-04T07:38:48;1.75;;;1.00;;
21611;SDS011;47005;52.292;13.452;2022-07-04T07:41:13;1.30;;;1.05;;
21611;SDS011;47005;52.292;13.452;2022-07-04T07:43:39;1.77;;;1.25;;
21611;SDS011;47005;52.292;13.452;2022-07-04T07:46:05;2.25;;;1.20;;
21611;SDS011;47005;52.292;13.452;2022-07-04T07:48:32;2.50;;;1.17;;
21611;SDS011;47005;52.292;13.452;2022-07-04T07:50:58;3.45;;;1.30;;
21611;SDS011;47005;52.292;13.452;2022-07-04T07:53:23;2.78;;;1.35;;
21611;SDS011;47005;52.292;13.452;2022-07-04T07:55:49;2.60;;;1.40;;
21611;SDS011;47005;52.292;13.452;2022-07-04T07:58:14;3.38;;;1.67;;
21611;SDS011;47005;52.292;13.452;2022-07-04T08:00:40;3.50;;;1.20;;
21611;SDS011;47005;52.292;13.452;2022-07-04T08:03:06;1.40;;;1.05;;
21611;SDS011;47005;52.292;13.452;2022-07-04T08:05:50;4.88;;;1.40;;
21611;SDS011;47005;52.292;13.452;2022-07-04T08:08:16;3.60;;;1.00;;
21611;SDS011;47005;52.292;13.452;2022-07-04T08:10:42;1.65;;;1.05;;
21611;SDS011;47005;52.292;13.452;2022-07-04T08:13:07;2.47;;;1.30;;
21611;SDS011;47005;52.292;13.452;2022-07-04T08:15:33;4.80;;;1.55;;
21611;SDS011;47005;52.292;13.452;2022-07-04T08:17:59;2.55;;;1.30;;
21611;SDS011;47005;52.292;13.452;2022-07-04T08:20:25;2.97;;;1.10;;
21611;SDS011;47005;52.292;13.452;2022-07-04T08:22:51;3.15;;;1.10;;
21611;SDS011;47005;52.292;13.452;2022-07-04T08:25:16;3.45;;;1.33;;
21611;SDS011;47005;52.292;13.452;2022-07-04T08:27:42;2.45;;;1.05;;
21611;SDS011;47005;52.292;13.452;2022-07-04T08:30:08;1.55;;;1.10;;
21611;SDS011;47005;52.292;13.452;2022-07-04T08:32:34;1.63;;;0.98;;
21611;SDS011;47005;52.292;13.452;2022-07-04T08:35:01;2.13;;;1.00;;
21611;SDS011;47005;52.292;13.452;2022-07-04T08:37:30;1.58;;;0.90;;
21611;SDS011;47005;52.292;13.452;2022-07-04T08:39:56;2.33;;;1.15;;
21611;SDS011;47005;52.292;13.452;2022-07-04T08:42:21;2.55;;;1.60;;
21611;SDS011;47005;52.292;13.452;2022-07-04T08:44:49;2.72;;;1.05;;
21611;SDS011;47005;52.292;13.452;2022-07-04T08:47:19;2.42;;;0.85;;
21611;SDS011;47005;52.292;13.452;2022-07-04T08:49:49;2.92;;;0.90;;
21611;SDS011;47005;52.292;13.452;2022-07-04T08:55:02;1.50;;;1.00;;
21611;SDS011;47005;52.292;13.452;2022-07-04T08:57:48;1.02;;;0.95;;
21611;SDS011;47005;52.292;13.452;2022-07-04T09:00:33;3.50;;;1.23;;
21611;SDS011;47005;52.292;13.452;2022-07-04T09:03:00;0.75;;;0.65;;
21611;SDS011;47005;52.292;13.452;2022-07-04T09:05:27;3.08;;;0.77;;
21611;SDS011;47005;52.292;13.452;2022-07-04T09:07:54;1.33;;;0.68;;
21611;SDS011;47005;52.292;13.452;2022-07-04T09:10:20;4.40;;;0.80;;
21611;SDS011;47005;52.292;13.452;2022-07-04T09:12:47;1.67;;;0.73;;
21611;SDS011;47005;52.292;13.452;2022-07-04T09:15:13;1.95;;;0.85;;
21611;SDS011;47005;52.292;13.452;2022-07-04T09:17:40;1.55;;;1.10;;
21611;SDS011;47005;52.292;13.452;2022-07-04T09:20:13;4.70;;;0.75;;
21611;SDS011;47005;52.292;13.452;2022-07-04T09:22:40;1.60;;;1.00;;
21611;SDS011;47005;52.292;13.452;2022-07-04T09:25:07;1.45;;;0.95;;
21611;SDS011;47005;52.292;13.452;2022-07-04T09:29:59;3.00;;;0.82;;
21611;SDS011;47005;52.292;13.452;2022-07-04T09:32:34;1.30;;;0.70;;
21611;SDS011;47005;52.292;13.452;2022-07-04T09:35:00;2.92;;;1.25;;
21611;SDS011;47005;52.292;13.452;2022-07-04T09:37:32;2.17;;;1.23;;
21611;SDS011;47005;52.292;13.452;2022-07-04T09:40:00;1.50;;;1.02;;
21611;SDS011;47005;52.292;13.452;2022-07-04T09:42:25;1.25;;;0.70;;
21611;SDS011;47005;52.292;13.452;2022-07-04T09:45:03;5.22;;;1.20;;
21611;SDS011;47005;52.292;13.452;2022-07-04T09:47:30;1.60;;;1.00;;
21611;SDS011;47005;52.292;13.452;2022-07-04T09:52:27;2.03;;;1.00;;
21611;SDS011;47005;52.292;13.452;2022-07-04T09:55:01;1.25;;;0.65;;
21611;SDS011;47005;52.292;13.452;2022-07-04T09:57:30;3.00;;;1.02;;
21611;SDS011;47005;52.292;13.452;2022-07-04T09:59:58;4.65;;;1.50;;
21611;SDS011;47005;52.292;13.452;2022-07-04T10:05:46;4.95;;;1.10;;
21611;SDS011;47005;52.292;13.452;2022-07-04T10:08:29;3.30;;;1.02;;
21611;SDS011;47005;52.292;13.452;2022-07-04T10:10:56;1.63;;;0.80;;
21611;SDS011;47005;52.292;13.452;2022-07-04T10:13:23;4.82;;;1.08;;
21611;SDS011;47005;52.292;13.452;2022-07-04T10:15:48;2.72;;;1.00;;
21611;SDS011;47005;52.292;13.452;2022-07-04T10:18:17;2.03;;;1.20;;
21611;SDS011;47005;52.292;13.452;2022-07-04T10:20:44;1.85;;;0.93;;
21611;SDS011;47005;52.292;13.452;2022-07-04T10:23:10;1.00;;;0.93;;
21611;SDS011;47005;52.292;13.452;2022-07-04T10:25:37;1.73;;;0.85;;
21611;SDS011;47005;52.292;13.452;2022-07-04T10:28:03;2.13;;;1.00;;
21611;SDS011;47005;52.292;13.452;2022-07-04T10:30:30;2.40;;;1.00;;
21611;SDS011;47005;52.292;13.452;2022-07-04T10:33:02;1.45;;;0.93;;
21611;SDS011;47005;52.292;13.452;2022-07-04T10:35:49;0.95;;;0.68;;
21611;SDS011;47005;52.292;13.452;2022-07-04T10:38:15;6.60;;;1.00;;
21611;SDS011;47005;52.292;13.452;2022-07-04T10:40:49;2.63;;;0.98;;
21611;SDS011;47005;52.292;13.452;2022-07-04T10:48:31;3.33;;;1.00;;
21611;SDS011;47005;52.292;13.452;2022-07-04T10:53:26;1.40;;;0.85;;
21611;SDS011;47005;52.292;13.452;2022-07-04T10:55:53;1.92;;;1.15;;
21611;SDS011;47005;52.292;13.452;2022-07-04T11:01:25;3.85;;;1.05;;
21611;SDS011;47005;52.292;13.452;2022-07-04T11:03:51;2.67;;;1.08;;
21611;SDS011;47005;52.292;13.452;2022-07-04T11:12:00;1.98;;;1.10;;
21611;SDS011;47005;52.292;13.452;2022-07-04T11:14:44;2.83;;;1.00;;
21611;SDS011;47005;52.292;13.452;2022-07-04T11:17:15;1.50;;;1.25;;
21611;SDS011;47005;52.292;13.452;2022-07-04T11:19:45;3.42;;;1.33;;
21611;SDS011;47005;52.292;13.452;2022-07-04T11:22:14;5.45;;;1.50;;
21611;SDS011;47005;52.292;13.452;2022-07-04T11:24:47;3.47;;;1.25;;
21611;SDS011;47005;52.292;13.452;2022-07-04T11:27:13;3.45;;;1.42;;
21611;SDS011;47005;52.292;13.452;2022-07-04T11:29:48;2.17;;;1.20;;
21611;SDS011;47005;52.292;13.452;2022-07-04T11:32:15;2.40;;;1.17;;
21611;SDS011;47005;52.292;13.452;2022-07-04T11:34:41;0.93;;;0.82;;
21611;SDS011;47005;52.292;13.452;2022-07-04T11:37:07;2.92;;;1.20;;
21611;SDS011;47005;52.292;13.452;2022-07-04T11:39:32;1.45;;;1.08;;
21611;SDS011;47005;52.292;13.452;2022-07-04T11:41:58;1.30;;;1.00;;
21611;SDS011;47005;52.292;13.452;2022-07-04T11:44:42;1.80;;;1.05;;
21611;SDS011;47005;52.292;13.452;2022-07-04T11:47:37;1.30;;;0.98;;
21611;SDS011;47005;52.292;13.452;2022-07-04T11:50:05;1.30;;;0.90;;
21611;SDS011;47005;52.292;13.452;2022-07-04T11:55:09;2.35;;;1.10;;
21611;SDS011;47005;52.292;13.452;2022-07-04T11:57:40;1.10;;;1.00;;
21611;SDS011;47005;52.292;13.452;2022-07-04T12:00:11;2.78;;;1.05;;
21611;SDS011;47005;52.292;13.452;2022-07-04T12:02:41;3.15;;;0.90;;
21611;SDS011;47005;52.292;13.452;2022-07-04T12:05:09;1.33;;;0.93;;
21611;SDS011;47005;52.292;13.452;2022-07-04T12:07:37;1.80;;;0.93;;
21611;SDS011;47005;52.292;13.452;2022-07-04T12:15:44;3.00;;;1.08;;
21611;SDS011;47005;52.292;13.452;2022-07-04T12:20:44;2.38;;;1.20;;
21611;SDS011;47005;52.292;13.452;2022-07-04T12:23:10;5.68;;;1.20;;
21611;SDS011;47005;52.292;13.452;2022-07-04T12:25:36;1.67;;;1.15;;
21611;SDS011;47005;52.292;13.452;2022-07-04T12:28:04;1.23;;;0.90;;
21611;SDS011;47005;52.292;13.452;2022-07-04T12:30:31;1.83;;;1.00;;
21611;SDS011;47005;52.292;13.452;2022-07-04T12:33:03;2.78;;;1.25;;
21611;SDS011;47005;52.292;13.452;2022-07-04T12:35:49;2.95;;;1.17;;
21611;SDS011;47005;52.292;13.452;2022-07-04T12:38:22;1.58;;;1.23;;
21611;SDS011;47005;52.292;13.452;2022-07-04T12:43:23;4.90;;;1.63;;
21611;SDS011;47005;52.292;13.452;2022-07-04T12:48:33;2.25;;;1.25;;
21611;SDS011;47005;52.292;13.452;2022-07-04T12:53:41;3.10;;;1.10;;
21611;SDS011;47005;52.292;13.452;2022-07-04T12:56:09;2.33;;;1.20;;
21611;SDS011;47005;52.292;13.452;2022-07-04T12:58:35;2.25;;;1.38;;
21611;SDS011;47005;52.292;13.452;2022-07-04T13:01:02;1.08;;;0.90;;
21611;SDS011;47005;52.292;13.452;2022-07-04T13:03:28;2.70;;;1.10;;
21611;SDS011;47005;52.292;13.452;2022-07-04T13:05:54;1.33;;;0.73;;
21611;SDS011;47005;52.292;13.452;2022-07-04T13:08:22;1.42;;;1.10;;
21611;SDS011;47005;52.292;13.452;2022-07-04T13:10:48;3.28;;;0.98;;
21611;SDS011;47005;52.292;13.452;2022-07-04T13:13:33;1.92;;;1.13;;
21611;SDS011;47005;52.292;13.452;2022-07-04T13:15:59;1.13;;;0.80;;
21611;SDS011;47005;52.292;13.452;2022-07-04T13:18:25;1.20;;;0.90;;
21611;SDS011;47005;52.292;13.452;2022-07-04T13:20:51;8.77;;;1.45;;
21611;SDS011;47005;52.292;13.452;2022-07-04T13:23:16;1.38;;;1.00;;
21611;SDS011;47005;52.292;13.452;2022-07-04T13:25:42;5.05;;;1.20;;
21611;SDS011;47005;52.292;13.452;2022-07-04T13:28:08;1.30;;;0.90;;
21611;SDS011;47005;52.292;13.452;2022-07-04T13:30:33;4.57;;;1.10;;
21611;SDS011;47005;52.292;13.452;2022-07-04T13:32:59;2.00;;;1.20;;
21611;SDS011;47005;52.292;13.452;2022-07-04T13:35:24;1.85;;;0.90;;
21611;SDS011;47005;52.292;13.452;2022-07-04T13:37:50;4.35;;;1.50;;
21611;SDS011;47005;52.292;13.452;2022-07-04T13:40:16;2.25;;;0.90;;
21611;SDS011;47005;52.292;13.452;2022-07-04T13:42:41;1.30;;;0.98;;
21611;SDS011;47005;52.292;13.452;2022-07-04T13:45:33;1.67;;;1.00;;
21611;SDS011;47005;52.292;13.452;2022-07-04T13:47:58;2.15;;;1.10;;
21611;SDS011;47005;52.292;13.452;2022-07-04T13:50:25;3.80;;;1.23;;
21611;SDS011;47005;52.292;13.452;2022-07-04T13:52:51;2.47;;;0.73;;
21611;SDS011;47005;52.292;13.452;2022-07-04T13:55:16;1.73;;;0.98;;
21611;SDS011;47005;52.292;13.452;2022-07-04T13:57:42;3.03;;;0.98;;
21611;SDS011;47005;52.292;13.452;2022-07-04T14:00:08;2.00;;;1.00;;
21611;SDS011;47005;52.292;13.452;2022-07-04T14:02:34;1.55;;;1.25;;
21611;SDS011;47005;52.292;13.452;2022-07-04T14:05:00;2.70;;;1.20;;
21611;SDS011;47005;52.292;13.452;2022-07-04T14:07:26;2.92;;;1.20;;
21611;SDS011;47005;52.292;13.452;2022-07-04T14:09:52;1.35;;;0.80;;
21611;SDS011;47005;52.292;13.452;2022-07-04T14:12:17;1.00;;;0.90;;
21611;SDS011;47005;52.292;13.452;2022-07-04T14:14:43;2.00;;;1.10;;
21611;SDS011;47005;52.292;13.452;2022-07-04T14:17:09;2.35;;;0.95;;
21611;SDS011;47005;52.292;13.452;2022-07-04T14:19:35;2.60;;;1.13;;
21611;SDS011;47005;52.292;13.452;2022-07-04T14:22:01;3.90;;;1.20;;
21611;SDS011;47005;52.292;13.452;2022-07-04T14:24:26;2.70;;;1.05;;
21611;SDS011;47005;52.292;13.452;2022-07-04T14:26:52;2.80;;;1.05;;
21611;SDS011;47005;52.292;13.452;2022-07-04T14:29:18;1.98;;;0.90;;
21611;SDS011;47005;52.292;13.452;2022-07-04T14:31:44;1.30;;;1.10;;
21611;SDS011;47005;52.292;13.452;2022-07-04T14:34:10;1.33;;;1.05;;
21611;SDS011;47005;52.292;13.452;2022-07-04T14:36:37;1.67;;;1.10;;
21611;SDS011;47005;52.292;13.452;2022-07-04T14:39:03;2.13;;;1.00;;
21611;SDS011;47005;52.292;13.452;2022-07-04T14:41:29;3.10;;;0.90;;
21611;SDS011;47005;52.292;13.452;2022-07-04T14:43:55;2.45;;;1.02;;
21611;SDS011;47005;52.292;13.452;2022-07-04T14:46:20;1.55;;;1.05;;
21611;SDS011;47005;52.292;13.452;2022-07-04T14:48:46;3.28;;;1.00;;
21611;SDS011;47005;52.292;13.452;2022-07-04T14:51:12;1.63;;;1.10;;
21611;SDS011;47005;52.292;13.452;2022-07-04T14:53:37;1.20;;;0.90;;
21611;SDS011;47005;52.292;13.452;2022-07-04T14:56:03;1.23;;;0.98;;
21611;SDS011;47005;52.292;13.452;2022-07-04T14:58:29;1.50;;;0.90;;
21611;SDS011;47005;52.292;13.452;2022-07-04T15:00:55;0.90;;;0.77;;
21611;SDS011;47005;52.292;13.452;2022-07-04T15:03:21;1.33;;;0.95;;
21611;SDS011;47005;52.292;13.452;2022-07-04T15:05:46;1.38;;;1.05;;
21611;SDS011;47005;52.292;13.452;2022-07-04T15:08:12;1.90;;;0.95;;
21611;SDS011;47005;52.292;13.452;2022-07-04T15:10:38;1.75;;;1.15;;
21611;SDS011;47005;52.292;13.452;2022-07-04T15:13:04;1.88;;;1.23;;
21611;SDS011;47005;52.292;13.452;2022-07-04T15:15:29;1.83;;;1.00;;
21611;SDS011;47005;52.292;13.452;2022-07-04T15:17:55;1.70;;;0.93;;